Vremea acum in Mioveni - Romania

Vrei sa afli care e starea vremii acum in Arges - Romania? Dorim sa iti furnizam starea vremii pentru Arges - Romania. Starea vremii Arges - Romania pentru astazi.

Vremea acum in Mioveni

Temperatura: 2.4 °C

Se simte ca: -0.1 °C
Innorat: 100 %
Precipitatii: 91 %
Presiune atmosferica: 1020 hPa
Umiditate: 99%
Vizibilitate: 7.7 km
Vantul bate din ESE cu 8.6 km/h

Evolutia vremii in Mioveni pe ore

Ora: 13:00
Ploi moderate
Temperatura: 2.4°C
Sansa de precipitatii: 91%
Ora Descriere Temp Se simte Precipitatii Umiditate Vant
00:00Ploaie torențială3.2°0.4°99%99%ESE 10.8 KM/H
01:00Ploaie torențială3.1°0.7°98%99%ESE 9 KM/H
02:00Ploaie torențială2.9°98%99%SE 6.8 KM/H
03:00Ploi moderate2.8°98%99%ESE 6.5 KM/H
04:00Ploaie torențială2.7°0.9°97%99%ESE 6.5 KM/H
05:00Ploi moderate2.6°0.9°97%99%ESE 6.1 KM/H
06:00Ploaie torențială2.6°0.6°97%99%ESE 7.2 KM/H
07:00Ploi moderate2.5°0.2°96%99%ESE 7.9 KM/H
08:00Ploaie torențială2.5°-0.1°96%99%ESE 9 KM/H
09:00Ploi moderate2.4°-0.1°96%99%ESE 8.6 KM/H
10:00Ploaie torențială2.4°-0.1°95%99%ESE 8.6 KM/H
11:00Ploi moderate2.3°-0.1°95%99%ESE 8.3 KM/H
12:00Ploi moderate2.4°0.8°93%99%ESE 6.5 KM/H
13:00Ploi moderate2.4°1.6°91%99%ESE 4.7 KM/H
14:00Ploi moderate2.5°2.5°90%99%ESE 2.9 KM/H
15:00Ploi moderate2.6°1.9°89%99%ESE 4.7 KM/H
16:00Ploi moderate2.8°1.3°89%99%E 6.1 KM/H
17:00Ploi moderate2.9°0.7°89%98%E 7.9 KM/H
18:00Ploi moderate2.9°0.7°80%98%E 7.9 KM/H
19:00Ploi moderate2.9°0.7°72%98%E 7.9 KM/H
20:00Ploi moderate2.9°0.7°64%98%E 7.9 KM/H
21:00Ploi uşoare2.9°0.7°63%98%E 7.9 KM/H
22:00Ploi moderate2.8°0.7°61%97%E 7.6 KM/H
23:00Ploi uşoare2.8°0.7°60%97%E 7.6 KM/H